createdAt,value
2023-07-26T00:02:14.904Z,72.00
2023-07-26T00:04:42.884Z,71.80
2023-07-26T00:07:10.834Z,71.40
2023-07-26T00:09:38.804Z,70.90
2023-07-26T00:12:07.587Z,70.60
2023-07-26T00:14:35.568Z,70.50
2023-07-26T00:17:03.691Z,70.50
2023-07-26T00:19:32.952Z,70.50
2023-07-26T00:22:00.903Z,71.10
2023-07-26T00:24:28.947Z,71.30
2023-07-26T00:26:56.969Z,71.10
2023-07-26T00:29:24.977Z,70.90
2023-07-26T00:31:54.794Z,71.70
2023-07-26T00:34:24.662Z,71.70
2023-07-26T00:36:54.026Z,71.50
2023-07-26T00:39:22.887Z,71.00
2023-07-26T00:41:50.827Z,70.60
2023-07-26T00:44:18.807Z,70.50
2023-07-26T00:46:46.810Z,70.50
2023-07-26T00:49:14.828Z,70.20
2023-07-26T00:51:42.822Z,70.70
2023-07-26T00:54:12.142Z,71.10
2023-07-26T00:56:40.105Z,71.20
2023-07-26T00:59:08.045Z,70.90
2023-07-26T01:01:36.540Z,70.90
2023-07-26T01:04:06.532Z,72.50
2023-07-26T01:06:38.541Z,71.70
2023-07-26T01:09:09.024Z,71.60
2023-07-26T01:11:40.382Z,71.30
2023-07-26T01:14:15.036Z,71.30
2023-07-26T01:16:43.608Z,71.90
2023-07-26T01:19:11.655Z,71.80
2023-07-26T01:21:40.928Z,71.60
2023-07-26T01:24:08.886Z,71.00
2023-07-26T01:26:36.920Z,70.80
2023-07-26T01:29:04.949Z,70.60
2023-07-26T01:31:33.160Z,70.60
2023-07-26T01:34:01.490Z,70.90
2023-07-26T01:36:30.709Z,71.30
2023-07-26T01:38:59.977Z,71.40
2023-07-26T01:41:28.092Z,71.20
2023-07-26T01:43:56.085Z,71.10
2023-07-26T01:46:24.094Z,71.90
2023-07-26T01:48:52.118Z,72.00
2023-07-26T01:51:20.114Z,71.80
2023-07-26T01:53:48.453Z,71.30
2023-07-26T01:56:19.885Z,71.60
2023-07-26T01:58:48.738Z,72.20
2023-07-26T02:01:16.717Z,71.80
2023-07-26T02:03:44.725Z,71.60
2023-07-26T02:06:12.720Z,71.00
2023-07-26T02:08:40.720Z,70.60
2023-07-26T02:11:08.751Z,70.60
2023-07-26T02:13:38.053Z,70.40
2023-07-26T02:16:06.650Z,70.40
2023-07-26T02:18:34.807Z,71.10
2023-07-26T02:21:02.766Z,71.00
2023-07-26T02:23:30.712Z,71.00
2023-07-26T02:25:58.681Z,70.90
2023-07-26T02:28:26.638Z,71.70
2023-07-26T02:30:55.979Z,71.80
2023-07-26T02:33:25.079Z,71.60
2023-07-26T02:35:53.106Z,71.30
2023-07-26T02:38:21.055Z,71.40
2023-07-26T02:40:49.307Z,72.10
2023-07-26T02:43:26.844Z,72.00
2023-07-26T02:46:04.603Z,71.80
2023-07-26T02:48:32.641Z,71.60
2023-07-26T02:51:00.915Z,72.20
2023-07-26T02:53:28.870Z,72.20
2023-07-26T02:55:56.822Z,71.90
2023-07-26T02:58:24.766Z,71.30
2023-07-26T03:00:54.036Z,70.80
2023-07-26T03:03:23.485Z,70.60
2023-07-26T03:05:51.471Z,70.40
2023-07-26T03:08:19.498Z,70.40
2023-07-26T03:10:47.415Z,70.80
2023-07-26T03:13:15.398Z,70.90
2023-07-26T03:15:43.629Z,71.00
2023-07-26T03:18:11.815Z,70.80
2023-07-26T03:20:41.062Z,71.00
2023-07-26T03:23:09.010Z,71.70
2023-07-26T03:25:36.959Z,71.70
2023-07-26T03:28:05.286Z,71.50
2023-07-26T03:30:33.242Z,71.40
2023-07-26T03:33:01.222Z,71.80
2023-07-26T03:35:30.851Z,72.10
2023-07-26T03:38:00.290Z,71.70
2023-07-26T03:40:28.264Z,71.50
2023-07-26T03:42:56.214Z,70.90
2023-07-26T03:45:24.219Z,70.80
2023-07-26T03:47:52.205Z,70.60
2023-07-26T03:50:22.092Z,70.60
2023-07-26T03:52:50.052Z,71.10
2023-07-26T03:55:19.398Z,71.20
2023-07-26T03:57:47.417Z,71.30
2023-07-26T04:00:15.816Z,71.20
2023-07-26T04:02:43.854Z,71.20
2023-07-26T04:05:12.977Z,71.90
2023-07-26T04:07:41.442Z,71.80
2023-07-26T04:10:09.985Z,71.50
2023-07-26T04:12:39.258Z,71.40
2023-07-26T04:15:08.376Z,71.20
2023-07-26T04:17:36.314Z,71.10
2023-07-26T04:20:04.740Z,71.50
2023-07-26T04:22:32.684Z,71.50
2023-07-26T04:25:01.109Z,71.30
2023-07-26T04:27:30.313Z,71.20
2023-07-26T04:29:59.582Z,71.50
2023-07-26T04:32:27.585Z,71.90
2023-07-26T04:34:55.514Z,71.80
2023-07-26T04:37:25.086Z,71.50
2023-07-26T04:39:53.066Z,71.60
2023-07-26T04:42:21.018Z,72.00
2023-07-26T04:44:49.111Z,72.30
2023-07-26T04:47:20.097Z,72.00
2023-07-26T04:49:48.024Z,71.80
2023-07-26T04:52:15.974Z,71.90
2023-07-26T04:54:44.152Z,72.50
2023-07-26T04:57:12.107Z,72.20
2023-07-26T04:59:40.033Z,71.90
2023-07-26T05:02:07.986Z,71.40
2023-07-26T05:04:37.392Z,70.90
2023-07-26T05:07:05.958Z,70.80
2023-07-26T05:09:33.949Z,70.60
2023-07-26T05:12:01.895Z,70.60
2023-07-26T05:14:29.847Z,71.10
2023-07-26T05:16:57.824Z,71.20
2023-07-26T05:19:25.762Z,71.20
2023-07-26T05:21:55.989Z,71.10
2023-07-26T05:24:24.096Z,71.20
2023-07-26T05:26:52.028Z,72.20
2023-07-26T05:29:19.961Z,71.90
2023-07-26T05:31:47.886Z,71.60
2023-07-26T05:34:16.881Z,71.50
2023-07-26T05:36:44.893Z,71.70
2023-07-26T05:39:14.718Z,72.10
2023-07-26T05:41:42.660Z,71.90
2023-07-26T05:44:10.721Z,71.60
2023-07-26T05:46:38.847Z,71.20
2023-07-26T05:49:07.122Z,70.90
2023-07-26T05:51:35.295Z,70.70
2023-07-26T05:54:03.269Z,70.70
2023-07-26T05:56:32.567Z,71.00
2023-07-26T05:59:00.862Z,71.30
2023-07-26T06:01:29.346Z,71.30
2023-07-26T06:03:57.302Z,71.20
2023-07-26T06:06:25.278Z,71.20
2023-07-26T06:08:53.827Z,71.90
2023-07-26T06:11:21.768Z,71.40
2023-07-26T06:13:51.113Z,71.30
2023-07-26T06:16:19.591Z,71.20
2023-07-26T06:18:47.697Z,71.80
2023-07-26T06:21:16.313Z,71.10
2023-07-26T06:23:44.436Z,71.40
2023-07-26T06:26:12.525Z,71.20
2023-07-26T06:28:40.498Z,71.20
2023-07-26T06:31:09.856Z,71.00
2023-07-26T06:33:37.963Z,71.60
2023-07-26T06:36:07.997Z,71.90
2023-07-26T06:38:36.068Z,71.60
2023-07-26T06:41:05.600Z,71.40
2023-07-26T06:43:33.527Z,71.50
2023-07-26T06:46:01.506Z,72.00
2023-07-26T06:48:30.821Z,71.90
2023-07-26T06:50:58.741Z,71.50
2023-07-26T06:53:26.703Z,71.00
2023-07-26T06:55:54.664Z,70.80
2023-07-26T06:58:22.602Z,70.60
2023-07-26T07:00:50.560Z,70.50
2023-07-26T07:03:18.570Z,70.60
2023-07-26T07:05:47.870Z,70.90
2023-07-26T07:08:15.763Z,71.00
2023-07-26T07:10:43.774Z,71.00
2023-07-26T07:13:11.701Z,71.10
2023-07-26T07:15:39.637Z,71.30
2023-07-26T07:20:38.429Z,71.60
2023-07-26T07:23:07.786Z,71.40
2023-07-26T07:25:35.821Z,71.40
2023-07-26T07:28:03.781Z,71.90
2023-07-26T07:30:31.866Z,71.90
2023-07-26T07:33:00.017Z,71.70
2023-07-26T07:35:28.343Z,71.30
2023-07-26T07:37:56.368Z,71.00
2023-07-26T07:40:25.725Z,70.90
2023-07-26T07:42:53.704Z,70.80
2023-07-26T07:45:21.639Z,70.70
2023-07-26T07:47:49.639Z,71.00
2023-07-26T07:50:17.620Z,71.40
2023-07-26T07:52:45.558Z,71.40
2023-07-26T07:55:13.552Z,71.30
2023-07-26T07:57:42.986Z,71.30
2023-07-26T08:00:12.295Z,72.00
2023-07-26T08:02:40.845Z,71.90
2023-07-26T08:05:09.705Z,71.80
2023-07-26T08:07:37.682Z,71.60
2023-07-26T08:10:06.337Z,72.00
2023-07-26T08:12:36.714Z,72.30
2023-07-26T08:15:07.207Z,72.10
2023-07-26T08:17:35.224Z,71.80
2023-07-26T08:20:03.558Z,71.30
2023-07-26T08:22:31.452Z,71.00
2023-07-26T08:25:00.029Z,70.90
2023-07-26T08:27:28.683Z,70.70
2023-07-26T08:29:56.634Z,70.90
2023-07-26T08:32:26.014Z,71.60
2023-07-26T08:34:54.027Z,71.50
2023-07-26T08:37:21.972Z,71.50
2023-07-26T08:39:49.933Z,71.50
2023-07-26T08:42:17.845Z,72.00
2023-07-26T08:44:46.305Z,72.10
2023-07-26T08:47:14.411Z,72.00
2023-07-26T08:49:43.757Z,71.80
2023-07-26T08:52:11.730Z,71.80
2023-07-26T08:54:39.705Z,72.40
2023-07-26T08:57:07.930Z,72.50
2023-07-26T08:59:35.888Z,72.00
2023-07-26T09:02:05.120Z,71.70
2023-07-26T09:04:33.537Z,71.20
2023-07-26T09:07:04.267Z,70.90
2023-07-26T09:09:32.570Z,70.80
2023-07-26T09:12:00.582Z,70.80
2023-07-26T09:14:29.018Z,71.30
2023-07-26T09:16:57.700Z,71.70
2023-07-26T09:19:29.247Z,71.60
2023-07-26T09:21:58.644Z,71.60
2023-07-26T09:24:34.329Z,71.50
2023-07-26T09:27:06.447Z,73.00
2023-07-26T09:29:34.568Z,72.20
2023-07-26T09:32:02.649Z,72.10
2023-07-26T09:34:31.346Z,71.90
2023-07-26T09:36:59.626Z,72.00
2023-07-26T09:39:28.377Z,72.60
2023-07-26T09:42:07.028Z,72.40
2023-07-26T09:44:35.312Z,72.20
2023-07-26T09:47:03.336Z,71.60
2023-07-26T09:49:32.308Z,71.20
2023-07-26T09:54:34.339Z,71.10
2023-07-26T09:57:04.090Z,71.10
2023-07-26T09:59:33.519Z,71.80
2023-07-26T10:02:03.132Z,71.90
2023-07-26T10:04:35.626Z,71.70
2023-07-26T10:07:05.362Z,71.70
2023-07-26T10:09:33.925Z,72.30
2023-07-26T10:12:03.242Z,72.40
2023-07-26T10:14:33.143Z,72.20
2023-07-26T10:17:01.342Z,72.10
2023-07-26T10:19:30.364Z,72.20
2023-07-26T10:21:58.670Z,72.80
2023-07-26T10:24:27.526Z,72.60
2023-07-26T10:26:55.584Z,72.20
2023-07-26T10:29:23.624Z,71.90
2023-07-26T10:32:02.597Z,71.40
2023-07-26T10:34:30.552Z,71.20
2023-07-26T10:36:58.608Z,71.10
2023-07-26T10:39:30.217Z,71.20
2023-07-26T10:41:58.194Z,71.90
2023-07-26T10:44:26.149Z,71.90
2023-07-26T10:46:54.941Z,71.90
2023-07-26T10:49:28.321Z,71.80
2023-07-26T10:51:59.857Z,72.40
2023-07-26T10:54:38.526Z,72.50
2023-07-26T10:57:24.074Z,72.30
2023-07-26T11:00:00.719Z,72.20
2023-07-26T11:02:53.178Z,72.20
2023-07-26T11:05:23.248Z,72.90
2023-07-26T11:07:55.965Z,73.00
2023-07-26T11:10:24.697Z,72.30
2023-07-26T11:12:53.614Z,71.90
2023-07-26T11:16:13.517Z,71.50
2023-07-26T11:18:19.696Z,71.30
2023-07-26T11:20:49.668Z,71.40
2023-07-26T11:23:19.124Z,71.80
2023-07-26T11:25:47.351Z,72.20
2023-07-26T11:28:15.337Z,72.00
2023-07-26T11:30:47.156Z,71.90
2023-07-26T11:33:15.082Z,72.00
2023-07-26T11:35:44.288Z,72.50
2023-07-26T11:38:16.201Z,72.60
2023-07-26T11:40:44.478Z,72.30
2023-07-26T11:43:12.495Z,72.30
2023-07-26T11:45:40.682Z,72.30
2023-07-26T11:48:10.214Z,73.10
2023-07-26T11:50:38.310Z,72.60
2023-07-26T11:53:06.598Z,72.40
2023-07-26T11:55:36.040Z,72.00
2023-07-26T11:58:07.322Z,71.60
2023-07-26T12:00:36.538Z,71.50
2023-07-26T12:03:05.158Z,71.30
2023-07-26T12:05:33.285Z,71.50
2023-07-26T12:08:02.644Z,72.10
2023-07-26T12:10:32.407Z,72.20
2023-07-26T12:13:05.681Z,72.00
2023-07-26T12:15:33.664Z,72.00
2023-07-26T12:18:02.789Z,72.10
2023-07-26T12:20:37.899Z,72.70
2023-07-26T12:23:13.652Z,72.60
2023-07-26T12:25:41.917Z,72.30
2023-07-26T12:28:11.213Z,72.20
2023-07-26T12:30:39.166Z,72.90
2023-07-26T12:33:11.983Z,72.90
2023-07-26T12:35:40.293Z,72.60
2023-07-26T12:38:12.307Z,72.30
2023-07-26T12:40:40.416Z,71.80
2023-07-26T12:43:26.689Z,71.40
2023-07-26T12:45:55.243Z,71.40
2023-07-26T12:48:23.693Z,71.30
2023-07-26T12:50:52.298Z,71.80
2023-07-26T12:53:20.554Z,72.00
2023-07-26T12:55:48.565Z,71.90
2023-07-26T12:58:16.589Z,71.80
2023-07-26T13:00:46.087Z,71.90
2023-07-26T13:03:14.207Z,72.50
2023-07-26T13:05:42.289Z,72.60
2023-07-26T13:08:10.293Z,72.40
2023-07-26T13:10:38.845Z,72.30
2023-07-26T13:13:06.790Z,72.40
2023-07-26T13:15:34.790Z,73.10
2023-07-26T13:18:04.585Z,73.50
2023-07-26T13:20:32.672Z,72.60
2023-07-26T13:23:00.612Z,72.20
2023-07-26T13:25:28.814Z,71.80
2023-07-26T13:27:57.284Z,71.60
2023-07-26T13:30:25.267Z,71.50
2023-07-26T13:32:53.248Z,71.60
2023-07-26T13:35:22.946Z,72.10
2023-07-26T13:37:50.881Z,72.30
2023-07-26T13:40:20.561Z,72.20
2023-07-26T13:42:48.615Z,72.10
2023-07-26T13:45:16.600Z,72.10
2023-07-26T13:47:46.264Z,72.90
2023-07-26T13:50:14.186Z,72.90
2023-07-26T13:52:43.431Z,72.50
2023-07-26T13:55:11.376Z,72.50
2023-07-26T13:57:39.378Z,72.70
2023-07-26T14:00:08.772Z,73.20
2023-07-26T14:02:45.512Z,72.90
2023-07-26T14:05:13.941Z,72.50
2023-07-26T14:07:43.292Z,72.10
2023-07-26T14:10:11.564Z,71.70
2023-07-26T14:12:39.492Z,71.50
2023-07-26T14:15:08.482Z,71.50
2023-07-26T14:17:37.509Z,71.60
2023-07-26T14:20:06.618Z,72.30
2023-07-26T14:22:34.596Z,72.20
2023-07-26T14:25:04.048Z,72.10
2023-07-26T14:27:32.036Z,72.10
2023-07-26T14:29:59.978Z,72.40
2023-07-26T14:32:28.047Z,72.80
2023-07-26T14:34:56.001Z,72.70
2023-07-26T14:37:23.936Z,72.50
2023-07-26T14:39:51.876Z,72.50
2023-07-26T14:42:21.209Z,72.90
2023-07-26T14:44:49.179Z,73.20
2023-07-26T14:47:17.210Z,72.90
2023-07-26T14:50:01.405Z,72.50
2023-07-26T14:52:30.895Z,72.10
2023-07-26T14:54:58.839Z,71.70
2023-07-26T14:57:28.114Z,71.60
2023-07-26T14:59:56.188Z,71.60
2023-07-26T15:02:24.201Z,71.70
2023-07-26T15:04:53.252Z,72.30
2023-07-26T15:07:21.317Z,72.30
2023-07-26T15:09:51.007Z,72.20
2023-07-26T15:12:20.086Z,72.20
2023-07-26T15:14:49.621Z,72.70
2023-07-26T15:17:17.580Z,72.90
2023-07-26T15:19:45.532Z,72.70
2023-07-26T15:22:13.566Z,72.60
2023-07-26T15:24:41.627Z,72.50
2023-07-26T15:27:09.644Z,73.20
2023-07-26T15:29:37.607Z,73.20
2023-07-26T15:32:09.213Z,72.90
2023-07-26T15:34:37.202Z,72.70
2023-07-26T15:37:05.296Z,72.80
2023-07-26T15:39:33.219Z,74.10
2023-07-26T15:49:36.846Z,72.00
2023-07-26T15:52:06.485Z,71.80
2023-07-26T15:54:34.478Z,71.70
2023-07-26T15:57:02.428Z,71.70
2023-07-26T15:59:31.293Z,72.40
2023-07-26T16:01:59.263Z,72.30
2023-07-26T16:04:28.590Z,72.30
2023-07-26T16:09:29.230Z,72.80
2023-07-26T16:22:03.631Z,73.20
2023-07-26T16:24:31.598Z,73.10
2023-07-26T16:26:59.552Z,72.70
2023-07-26T16:29:27.457Z,72.40
2023-07-26T16:31:55.432Z,72.10
2023-07-26T16:34:23.543Z,71.80
2023-07-26T16:36:51.519Z,71.60
2023-07-26T16:39:20.873Z,71.60
2023-07-26T16:41:48.992Z,72.40
2023-07-26T16:44:16.942Z,72.40
2023-07-26T16:49:15.708Z,72.30
2023-07-26T16:51:44.112Z,72.50
2023-07-26T16:54:12.028Z,72.90
2023-07-26T16:56:41.381Z,72.70
2023-07-26T16:59:09.359Z,72.50
2023-07-26T17:01:37.426Z,72.60
2023-07-26T17:04:05.699Z,73.30
2023-07-26T17:06:33.807Z,73.20
2023-07-26T17:09:02.085Z,72.90
2023-07-26T17:11:30.031Z,72.50
2023-07-26T17:13:59.308Z,72.20
2023-07-26T17:16:27.226Z,71.90
2023-07-26T17:18:55.211Z,71.90
2023-07-26T17:21:24.508Z,71.90
2023-07-26T17:23:52.432Z,72.50
2023-07-26T17:26:20.418Z,72.60
2023-07-26T17:28:49.215Z,72.40
2023-07-26T17:31:18.586Z,72.40
2023-07-26T17:33:46.507Z,72.50
2023-07-26T17:36:14.767Z,73.10
2023-07-26T17:38:42.798Z,72.90
2023-07-26T17:41:10.769Z,72.60
2023-07-26T17:43:39.306Z,72.50
2023-07-26T17:46:08.522Z,72.30
2023-07-26T17:48:39.233Z,72.40
2023-07-26T17:51:07.723Z,72.60
2023-07-26T17:53:38.450Z,72.60
2023-07-26T17:56:06.800Z,72.40
2023-07-26T17:58:35.206Z,72.40
2023-07-26T18:01:03.214Z,72.90
2023-07-26T18:03:31.167Z,72.90
2023-07-26T18:06:01.790Z,72.80
2023-07-26T18:08:29.756Z,72.50
2023-07-26T18:10:58.094Z,72.40
2023-07-26T18:13:26.663Z,72.20
2023-07-26T18:16:03.861Z,72.70
2023-07-26T18:18:31.980Z,72.60
2023-07-26T18:21:01.509Z,72.50
2023-07-26T18:23:29.515Z,72.40
2023-07-26T18:25:57.434Z,72.50
2023-07-26T18:28:25.446Z,73.00
2023-07-26T18:31:01.539Z,72.90
2023-07-26T18:33:29.553Z,72.70
2023-07-26T18:35:57.718Z,72.70
2023-07-26T18:38:27.171Z,73.30
2023-07-26T18:40:55.132Z,73.30
2023-07-26T18:43:23.169Z,73.10
2023-07-26T18:45:51.182Z,72.80
2023-07-26T18:48:20.815Z,72.90
2023-07-26T18:50:48.903Z,73.50
2023-07-26T18:53:17.401Z,73.50
2023-07-26T18:55:47.044Z,73.10
2023-07-26T18:58:15.038Z,72.50
2023-07-26T19:00:43.115Z,72.10
2023-07-26T19:03:11.297Z,71.90
2023-07-26T19:05:39.904Z,71.80
2023-07-26T19:08:07.996Z,71.60
2023-07-26T19:10:41.730Z,72.30
2023-07-26T19:13:11.800Z,72.40
2023-07-26T19:15:39.784Z,72.40
2023-07-26T19:18:07.731Z,72.10
2023-07-26T19:20:35.683Z,72.40
2023-07-26T19:23:04.028Z,73.00
2023-07-26T19:25:32.776Z,73.70
2023-07-26T19:28:00.807Z,72.70
2023-07-26T19:30:30.226Z,72.60
2023-07-26T19:32:58.662Z,73.30
2023-07-26T19:35:29.140Z,73.30
2023-07-26T19:37:57.457Z,73.10
2023-07-26T19:40:25.539Z,72.70
2023-07-26T19:42:53.471Z,72.20
2023-07-26T19:45:21.513Z,72.10
2023-07-26T19:47:50.888Z,72.00
2023-07-26T19:50:18.934Z,72.50
2023-07-26T19:52:47.249Z,72.20
2023-07-26T19:55:16.207Z,72.60
2023-07-26T19:57:44.209Z,72.60
2023-07-26T20:00:13.652Z,72.40
2023-07-26T20:02:41.653Z,72.40
2023-07-26T20:05:11.454Z,73.80
2023-07-26T20:07:39.384Z,73.00
2023-07-26T20:10:08.848Z,73.70
2023-07-26T20:12:36.773Z,72.70
2023-07-26T20:15:05.179Z,72.70
2023-07-26T20:17:33.254Z,73.50
2023-07-26T20:20:01.432Z,73.20
2023-07-26T20:22:30.733Z,72.90
2023-07-26T20:24:58.791Z,72.50
2023-07-26T20:27:28.526Z,72.10
2023-07-26T20:29:56.599Z,72.00
2023-07-26T20:32:24.568Z,71.80
2023-07-26T20:34:54.959Z,71.90
2023-07-26T20:37:24.828Z,72.50
2023-07-26T20:39:59.192Z,72.50
2023-07-26T20:42:28.789Z,72.60
2023-07-26T20:44:57.193Z,72.50
2023-07-26T20:47:25.561Z,72.70
2023-07-26T20:49:53.697Z,73.20
2023-07-26T20:52:21.627Z,73.00
2023-07-26T20:54:49.601Z,72.80
2023-07-26T20:57:19.139Z,72.70
2023-07-26T20:59:47.071Z,72.60
2023-07-26T21:02:15.019Z,73.00
2023-07-26T21:04:43.064Z,73.00
2023-07-26T21:07:10.993Z,72.80
2023-07-26T21:09:38.927Z,72.60
2023-07-26T21:12:07.513Z,73.00
2023-07-26T21:14:36.860Z,73.40
2023-07-26T21:17:05.215Z,73.10
2023-07-26T21:19:33.596Z,72.70
2023-07-26T21:22:01.576Z,72.30
2023-07-26T21:24:29.552Z,72.00
2023-07-26T21:26:57.480Z,71.90
2023-07-26T21:29:25.533Z,71.90
2023-07-26T21:31:54.873Z,71.90
2023-07-26T21:34:24.859Z,72.50
2023-07-26T21:36:52.861Z,72.60
2023-07-26T21:39:20.854Z,72.60
2023-07-26T21:41:48.855Z,72.50
2023-07-26T21:44:16.785Z,72.90
2023-07-26T21:46:44.688Z,73.20
2023-07-26T21:49:13.975Z,73.10
2023-07-26T21:51:41.921Z,72.90
2023-07-26T21:54:09.900Z,72.90
2023-07-26T21:56:38.166Z,73.50
2023-07-26T21:59:07.434Z,73.40
2023-07-26T22:01:37.702Z,73.10
2023-07-26T22:04:06.769Z,72.70
2023-07-26T22:06:36.400Z,72.20
2023-07-26T22:09:06.095Z,71.90
2023-07-26T22:11:34.552Z,71.80
2023-07-26T22:14:02.735Z,71.70
2023-07-26T22:16:30.751Z,72.20
2023-07-26T22:18:58.743Z,72.40
2023-07-26T22:21:26.688Z,72.50
2023-07-26T22:23:56.342Z,72.40
2023-07-26T22:26:24.319Z,72.40
2023-07-26T22:28:52.247Z,73.00
2023-07-26T22:31:20.179Z,73.10
2023-07-26T22:33:48.150Z,73.00
2023-07-26T22:36:16.098Z,72.80
2023-07-26T22:38:44.003Z,72.80
2023-07-26T22:41:13.524Z,73.40
2023-07-26T22:43:41.446Z,73.30
2023-07-26T22:46:12.497Z,73.00
2023-07-26T22:48:42.026Z,72.50
2023-07-26T22:51:10.206Z,72.10
2023-07-26T22:53:38.144Z,71.90
2023-07-26T22:56:06.121Z,71.90
2023-07-26T22:58:35.392Z,71.80
2023-07-26T23:01:04.015Z,72.20
2023-07-26T23:03:32.556Z,72.50
2023-07-26T23:06:00.854Z,72.60
2023-07-26T23:08:28.883Z,72.60
2023-07-26T23:10:59.870Z,72.50
2023-07-26T23:13:28.033Z,73.10
2023-07-26T23:15:58.958Z,73.20
2023-07-26T23:18:29.567Z,73.20
2023-07-26T23:20:57.645Z,72.90
2023-07-26T23:23:26.306Z,72.90
2023-07-26T23:25:54.322Z,73.50
2023-07-26T23:28:22.345Z,73.40
2023-07-26T23:30:51.087Z,73.10
2023-07-26T23:33:20.748Z,72.50
2023-07-26T23:35:48.979Z,72.20
2023-07-26T23:38:16.968Z,72.00
2023-07-26T23:40:45.908Z,71.90
2023-07-26T23:43:13.892Z,71.90
2023-07-26T23:45:42.765Z,72.40
2023-07-26T23:48:10.996Z,72.50
2023-07-26T23:50:40.307Z,72.50
2023-07-26T23:53:08.267Z,72.50
2023-07-26T23:55:36.700Z,72.70
2023-07-26T23:58:04.922Z,73.20
